sensor_id;sensor_type;location;lat;lon;timestamp;P1;durP1;ratioP1;P2;durP2;ratioP2
71671;SDS011;67659;45.554;11.812;2023-05-10T00:01:25;6.80;;;3.20;;
71671;SDS011;67659;45.554;11.812;2023-05-10T00:03:51;7.35;;;3.10;;
71671;SDS011;67659;45.554;11.812;2023-05-10T00:06:17;7.68;;;3.10;;
71671;SDS011;67659;45.554;11.812;2023-05-10T00:08:43;6.00;;;3.10;;
71671;SDS011;67659;45.554;11.812;2023-05-10T00:11:10;6.18;;;3.10;;
71671;SDS011;67659;45.554;11.812;2023-05-10T00:13:36;6.20;;;3.10;;
71671;SDS011;67659;45.554;11.812;2023-05-10T00:16:02;5.53;;;2.80;;
71671;SDS011;67659;45.554;11.812;2023-05-10T00:18:28;6.82;;;2.85;;
71671;SDS011;67659;45.554;11.812;2023-05-10T00:20:54;6.20;;;2.80;;
71671;SDS011;67659;45.554;11.812;2023-05-10T00:23:20;6.20;;;2.80;;
71671;SDS011;67659;45.554;11.812;2023-05-10T00:25:46;5.47;;;2.80;;
71671;SDS011;67659;45.554;11.812;2023-05-10T00:28:12;6.45;;;2.90;;
71671;SDS011;67659;45.554;11.812;2023-05-10T00:30:37;6.60;;;2.97;;
71671;SDS011;67659;45.554;11.812;2023-05-10T00:33:03;6.33;;;3.00;;
71671;SDS011;67659;45.554;11.812;2023-05-10T00:35:29;5.30;;;2.60;;
71671;SDS011;67659;45.554;11.812;2023-05-10T00:37:55;6.78;;;2.78;;
71671;SDS011;67659;45.554;11.812;2023-05-10T00:40:22;5.37;;;2.70;;
71671;SDS011;67659;45.554;11.812;2023-05-10T00:42:48;5.60;;;2.70;;
71671;SDS011;67659;45.554;11.812;2023-05-10T00:45:14;6.07;;;2.78;;
71671;SDS011;67659;45.554;11.812;2023-05-10T00:47:40;5.80;;;2.70;;
71671;SDS011;67659;45.554;11.812;2023-05-10T00:50:06;5.97;;;2.70;;
71671;SDS011;67659;45.554;11.812;2023-05-10T00:52:33;5.03;;;2.42;;
71671;SDS011;67659;45.554;11.812;2023-05-10T00:54:59;5.50;;;2.60;;
71671;SDS011;67659;45.554;11.812;2023-05-10T00:57:26;6.10;;;2.85;;
71671;SDS011;67659;45.554;11.812;2023-05-10T00:59:53;5.32;;;2.67;;
71671;SDS011;67659;45.554;11.812;2023-05-10T01:02:19;5.90;;;2.53;;
71671;SDS011;67659;45.554;11.812;2023-05-10T01:04:45;7.15;;;2.78;;
71671;SDS011;67659;45.554;11.812;2023-05-10T01:07:11;4.90;;;2.60;;
71671;SDS011;67659;45.554;11.812;2023-05-10T01:09:37;6.95;;;2.70;;
71671;SDS011;67659;45.554;11.812;2023-05-10T01:12:03;5.50;;;2.70;;
71671;SDS011;67659;45.554;11.812;2023-05-10T01:14:31;5.75;;;2.40;;
71671;SDS011;67659;45.554;11.812;2023-05-10T01:16:58;6.63;;;2.72;;
71671;SDS011;67659;45.554;11.812;2023-05-10T01:19:26;6.05;;;2.55;;
71671;SDS011;67659;45.554;11.812;2023-05-10T01:22:04;6.40;;;2.70;;
71671;SDS011;67659;45.554;11.812;2023-05-10T01:27:43;6.43;;;2.45;;
71671;SDS011;67659;45.554;11.812;2023-05-10T01:33:11;6.00;;;2.28;;
71671;SDS011;67659;45.554;11.812;2023-05-10T01:35:50;6.45;;;2.70;;
71671;SDS011;67659;45.554;11.812;2023-05-10T01:38:28;6.97;;;2.47;;
71671;SDS011;67659;45.554;11.812;2023-05-10T01:44:01;5.03;;;2.25;;
71671;SDS011;67659;45.554;11.812;2023-05-10T01:46:38;5.60;;;2.30;;
71671;SDS011;67659;45.554;11.812;2023-05-10T01:49:08;5.97;;;2.40;;
71671;SDS011;67659;45.554;11.812;2023-05-10T01:51:45;6.50;;;2.10;;
71671;SDS011;67659;45.554;11.812;2023-05-10T01:54:14;5.45;;;2.30;;
71671;SDS011;67659;45.554;11.812;2023-05-10T01:56:46;4.30;;;2.20;;
71671;SDS011;67659;45.554;11.812;2023-05-10T01:59:16;5.25;;;2.50;;
71671;SDS011;67659;45.554;11.812;2023-05-10T02:01:44;5.68;;;2.22;;
71671;SDS011;67659;45.554;11.812;2023-05-10T02:04:12;5.63;;;2.43;;
71671;SDS011;67659;45.554;11.812;2023-05-10T02:06:42;5.00;;;2.25;;
71671;SDS011;67659;45.554;11.812;2023-05-10T02:09:08;6.05;;;2.80;;
71671;SDS011;67659;45.554;11.812;2023-05-10T02:11:37;4.80;;;2.45;;
71671;SDS011;67659;45.554;11.812;2023-05-10T02:14:05;6.10;;;2.50;;
71671;SDS011;67659;45.554;11.812;2023-05-10T02:16:34;5.30;;;2.53;;
71671;SDS011;67659;45.554;11.812;2023-05-10T02:19:01;4.97;;;2.20;;
71671;SDS011;67659;45.554;11.812;2023-05-10T02:21:28;6.47;;;2.50;;
71671;SDS011;67659;45.554;11.812;2023-05-10T02:23:54;5.53;;;2.20;;
71671;SDS011;67659;45.554;11.812;2023-05-10T02:26:22;5.30;;;2.50;;
71671;SDS011;67659;45.554;11.812;2023-05-10T02:28:50;6.37;;;2.20;;
71671;SDS011;67659;45.554;11.812;2023-05-10T02:31:18;4.95;;;2.33;;
71671;SDS011;67659;45.554;11.812;2023-05-10T02:33:45;8.05;;;2.40;;
71671;SDS011;67659;45.554;11.812;2023-05-10T02:36:12;5.00;;;2.30;;
71671;SDS011;67659;45.554;11.812;2023-05-10T02:38:39;4.78;;;2.45;;
71671;SDS011;67659;45.554;11.812;2023-05-10T02:41:06;5.67;;;2.30;;
71671;SDS011;67659;45.554;11.812;2023-05-10T02:43:34;4.32;;;2.10;;
71671;SDS011;67659;45.554;11.812;2023-05-10T02:46:01;5.00;;;2.33;;
71671;SDS011;67659;45.554;11.812;2023-05-10T02:48:27;4.60;;;2.00;;
71671;SDS011;67659;45.554;11.812;2023-05-10T02:50:54;4.72;;;2.20;;
71671;SDS011;67659;45.554;11.812;2023-05-10T02:53:30;5.80;;;2.23;;
71671;SDS011;67659;45.554;11.812;2023-05-10T02:56:00;5.00;;;2.35;;
71671;SDS011;67659;45.554;11.812;2023-05-10T02:58:32;4.57;;;2.30;;
71671;SDS011;67659;45.554;11.812;2023-05-10T03:00:59;4.45;;;2.00;;
71671;SDS011;67659;45.554;11.812;2023-05-10T03:03:25;6.80;;;2.28;;
71671;SDS011;67659;45.554;11.812;2023-05-10T03:05:51;4.17;;;2.07;;
71671;SDS011;67659;45.554;11.812;2023-05-10T03:08:20;4.85;;;2.30;;
71671;SDS011;67659;45.554;11.812;2023-05-10T03:10:51;5.20;;;2.40;;
71671;SDS011;67659;45.554;11.812;2023-05-10T03:13:36;6.05;;;2.25;;
71671;SDS011;67659;45.554;11.812;2023-05-10T03:16:22;5.50;;;2.35;;
71671;SDS011;67659;45.554;11.812;2023-05-10T03:18:56;5.10;;;2.27;;
71671;SDS011;67659;45.554;11.812;2023-05-10T03:21:47;4.28;;;2.10;;
71671;SDS011;67659;45.554;11.812;2023-05-10T03:24:16;5.85;;;2.25;;
71671;SDS011;67659;45.554;11.812;2023-05-10T03:26:47;4.18;;;2.10;;
71671;SDS011;67659;45.554;11.812;2023-05-10T03:29:15;4.20;;;2.10;;
71671;SDS011;67659;45.554;11.812;2023-05-10T03:31:42;4.30;;;2.10;;
71671;SDS011;67659;45.554;11.812;2023-05-10T03:34:08;4.35;;;2.10;;
71671;SDS011;67659;45.554;11.812;2023-05-10T03:36:34;6.00;;;2.20;;
71671;SDS011;67659;45.554;11.812;2023-05-10T03:39:00;4.93;;;2.20;;
71671;SDS011;67659;45.554;11.812;2023-05-10T03:41:26;4.20;;;1.90;;
71671;SDS011;67659;45.554;11.812;2023-05-10T03:43:53;4.90;;;2.10;;
71671;SDS011;67659;45.554;11.812;2023-05-10T03:46:19;6.22;;;2.28;;
71671;SDS011;67659;45.554;11.812;2023-05-10T03:48:55;5.85;;;2.00;;
71671;SDS011;67659;45.554;11.812;2023-05-10T03:51:30;4.68;;;2.17;;
71671;SDS011;67659;45.554;11.812;2023-05-10T03:53:56;5.13;;;2.07;;
71671;SDS011;67659;45.554;11.812;2023-05-10T03:56:22;4.40;;;2.10;;
71671;SDS011;67659;45.554;11.812;2023-05-10T03:58:48;4.95;;;1.90;;
71671;SDS011;67659;45.554;11.812;2023-05-10T04:01:14;4.40;;;1.83;;
71671;SDS011;67659;45.554;11.812;2023-05-10T04:03:40;3.80;;;2.00;;
71671;SDS011;67659;45.554;11.812;2023-05-10T04:06:06;5.03;;;2.20;;
71671;SDS011;67659;45.554;11.812;2023-05-10T04:08:34;4.00;;;1.98;;
71671;SDS011;67659;45.554;11.812;2023-05-10T04:11:07;5.40;;;2.30;;
71671;SDS011;67659;45.554;11.812;2023-05-10T04:13:34;4.35;;;1.90;;
71671;SDS011;67659;45.554;11.812;2023-05-10T04:16:01;3.92;;;1.88;;
71671;SDS011;67659;45.554;11.812;2023-05-10T04:18:27;4.28;;;2.03;;
71671;SDS011;67659;45.554;11.812;2023-05-10T04:20:53;5.72;;;2.20;;
71671;SDS011;67659;45.554;11.812;2023-05-10T04:23:19;3.90;;;1.80;;
71671;SDS011;67659;45.554;11.812;2023-05-10T04:25:44;4.78;;;2.15;;
71671;SDS011;67659;45.554;11.812;2023-05-10T04:28:10;4.95;;;2.00;;
71671;SDS011;67659;45.554;11.812;2023-05-10T04:30:36;4.43;;;1.90;;
71671;SDS011;67659;45.554;11.812;2023-05-10T04:33:02;4.40;;;2.20;;
71671;SDS011;67659;45.554;11.812;2023-05-10T04:35:28;4.55;;;1.98;;
71671;SDS011;67659;45.554;11.812;2023-05-10T04:37:54;4.25;;;2.03;;
71671;SDS011;67659;45.554;11.812;2023-05-10T04:40:20;4.70;;;2.07;;
71671;SDS011;67659;45.554;11.812;2023-05-10T04:42:46;5.30;;;2.05;;
71671;SDS011;67659;45.554;11.812;2023-05-10T04:45:12;4.10;;;1.88;;
71671;SDS011;67659;45.554;11.812;2023-05-10T04:47:39;5.50;;;2.22;;
71671;SDS011;67659;45.554;11.812;2023-05-10T04:50:06;4.10;;;2.00;;
71671;SDS011;67659;45.554;11.812;2023-05-10T04:52:32;4.30;;;2.00;;
71671;SDS011;67659;45.554;11.812;2023-05-10T04:54:58;4.13;;;2.03;;
71671;SDS011;67659;45.554;11.812;2023-05-10T04:57:24;4.82;;;2.25;;
71671;SDS011;67659;45.554;11.812;2023-05-10T04:59:50;5.70;;;2.20;;
71671;SDS011;67659;45.554;11.812;2023-05-10T05:02:17;4.93;;;1.98;;
71671;SDS011;67659;45.554;11.812;2023-05-10T05:04:43;4.47;;;2.10;;
71671;SDS011;67659;45.554;11.812;2023-05-10T05:07:09;4.63;;;1.85;;
71671;SDS011;67659;45.554;11.812;2023-05-10T05:09:35;4.60;;;1.90;;
71671;SDS011;67659;45.554;11.812;2023-05-10T05:12:01;4.47;;;2.10;;
71671;SDS011;67659;45.554;11.812;2023-05-10T05:14:27;3.72;;;1.80;;
71671;SDS011;67659;45.554;11.812;2023-05-10T05:16:53;4.37;;;2.10;;
71671;SDS011;67659;45.554;11.812;2023-05-10T05:19:20;4.68;;;2.10;;
71671;SDS011;67659;45.554;11.812;2023-05-10T05:21:47;4.30;;;2.15;;
71671;SDS011;67659;45.554;11.812;2023-05-10T05:24:13;4.68;;;2.13;;
71671;SDS011;67659;45.554;11.812;2023-05-10T05:26:39;5.70;;;2.40;;
71671;SDS011;67659;45.554;11.812;2023-05-10T05:29:05;4.07;;;1.90;;
71671;SDS011;67659;45.554;11.812;2023-05-10T05:31:31;4.45;;;2.10;;
71671;SDS011;67659;45.554;11.812;2023-05-10T05:33:57;5.05;;;1.90;;
71671;SDS011;67659;45.554;11.812;2023-05-10T05:36:23;4.88;;;2.20;;
71671;SDS011;67659;45.554;11.812;2023-05-10T05:38:49;4.93;;;2.10;;
71671;SDS011;67659;45.554;11.812;2023-05-10T05:41:16;5.40;;;2.23;;
71671;SDS011;67659;45.554;11.812;2023-05-10T05:43:42;5.93;;;2.10;;
71671;SDS011;67659;45.554;11.812;2023-05-10T05:46:08;6.30;;;2.50;;
71671;SDS011;67659;45.554;11.812;2023-05-10T05:48:34;6.07;;;2.40;;
71671;SDS011;67659;45.554;11.812;2023-05-10T05:51:00;5.40;;;2.50;;
71671;SDS011;67659;45.554;11.812;2023-05-10T05:53:26;5.10;;;2.40;;
71671;SDS011;67659;45.554;11.812;2023-05-10T05:55:53;7.93;;;2.90;;
71671;SDS011;67659;45.554;11.812;2023-05-10T05:58:21;6.93;;;2.70;;
71671;SDS011;67659;45.554;11.812;2023-05-10T06:00:51;6.18;;;2.47;;
71671;SDS011;67659;45.554;11.812;2023-05-10T06:03:17;5.57;;;2.40;;
71671;SDS011;67659;45.554;11.812;2023-05-10T06:05:44;7.97;;;2.75;;
71671;SDS011;67659;45.554;11.812;2023-05-10T06:08:10;7.05;;;2.42;;
71671;SDS011;67659;45.554;11.812;2023-05-10T06:10:36;7.47;;;2.33;;
71671;SDS011;67659;45.554;11.812;2023-05-10T06:13:02;8.75;;;2.40;;
71671;SDS011;67659;45.554;11.812;2023-05-10T06:15:29;8.63;;;2.40;;
71671;SDS011;67659;45.554;11.812;2023-05-10T06:17:55;6.85;;;2.35;;
71671;SDS011;67659;45.554;11.812;2023-05-10T06:20:20;6.20;;;2.53;;
71671;SDS011;67659;45.554;11.812;2023-05-10T06:22:46;6.18;;;2.30;;
71671;SDS011;67659;45.554;11.812;2023-05-10T06:25:12;8.63;;;2.37;;
71671;SDS011;67659;45.554;11.812;2023-05-10T06:27:39;6.05;;;2.42;;
71671;SDS011;67659;45.554;11.812;2023-05-10T06:30:05;6.05;;;2.40;;
71671;SDS011;67659;45.554;11.812;2023-05-10T06:32:33;7.47;;;2.20;;
71671;SDS011;67659;45.554;11.812;2023-05-10T06:34:59;5.87;;;2.23;;
71671;SDS011;67659;45.554;11.812;2023-05-10T06:37:25;6.65;;;2.22;;
71671;SDS011;67659;45.554;11.812;2023-05-10T06:39:52;6.93;;;2.20;;
71671;SDS011;67659;45.554;11.812;2023-05-10T06:42:18;5.38;;;2.10;;
71671;SDS011;67659;45.554;11.812;2023-05-10T06:44:44;6.00;;;2.20;;
71671;SDS011;67659;45.554;11.812;2023-05-10T06:47:10;7.50;;;2.30;;
71671;SDS011;67659;45.554;11.812;2023-05-10T06:49:36;6.47;;;2.30;;
71671;SDS011;67659;45.554;11.812;2023-05-10T06:52:02;6.85;;;2.15;;
71671;SDS011;67659;45.554;11.812;2023-05-10T06:54:29;6.10;;;2.20;;
71671;SDS011;67659;45.554;11.812;2023-05-10T06:56:55;6.77;;;2.17;;
71671;SDS011;67659;45.554;11.812;2023-05-10T06:59:21;7.28;;;2.25;;
71671;SDS011;67659;45.554;11.812;2023-05-10T07:01:47;5.30;;;2.30;;
71671;SDS011;67659;45.554;11.812;2023-05-10T07:04:13;6.68;;;2.25;;
71671;SDS011;67659;45.554;11.812;2023-05-10T07:06:39;5.97;;;2.10;;
71671;SDS011;67659;45.554;11.812;2023-05-10T07:09:05;8.77;;;2.20;;
71671;SDS011;67659;45.554;11.812;2023-05-10T07:11:32;6.25;;;2.58;;
71671;SDS011;67659;45.554;11.812;2023-05-10T07:13:58;6.25;;;2.10;;
71671;SDS011;67659;45.554;11.812;2023-05-10T07:16:24;6.97;;;2.20;;
71671;SDS011;67659;45.554;11.812;2023-05-10T07:18:50;6.88;;;2.35;;
71671;SDS011;67659;45.554;11.812;2023-05-10T07:21:18;10.27;;;2.60;;
71671;SDS011;67659;45.554;11.812;2023-05-10T07:23:44;8.70;;;2.58;;
71671;SDS011;67659;45.554;11.812;2023-05-10T07:26:10;10.07;;;2.50;;
71671;SDS011;67659;45.554;11.812;2023-05-10T07:28:37;7.47;;;2.63;;
71671;SDS011;67659;45.554;11.812;2023-05-10T07:31:03;7.15;;;2.60;;
71671;SDS011;67659;45.554;11.812;2023-05-10T07:33:29;10.07;;;3.00;;
71671;SDS011;67659;45.554;11.812;2023-05-10T07:35:55;9.52;;;2.80;;
71671;SDS011;67659;45.554;11.812;2023-05-10T07:38:21;8.40;;;2.72;;
71671;SDS011;67659;45.554;11.812;2023-05-10T07:40:47;9.00;;;2.80;;
71671;SDS011;67659;45.554;11.812;2023-05-10T07:43:13;9.90;;;3.00;;
71671;SDS011;67659;45.554;11.812;2023-05-10T07:45:39;9.70;;;3.40;;
71671;SDS011;67659;45.554;11.812;2023-05-10T07:48:05;11.10;;;3.45;;
71671;SDS011;67659;45.554;11.812;2023-05-10T07:50:31;7.95;;;2.95;;
71671;SDS011;67659;45.554;11.812;2023-05-10T07:52:58;9.68;;;3.10;;
71671;SDS011;67659;45.554;11.812;2023-05-10T07:55:24;11.15;;;3.22;;
71671;SDS011;67659;45.554;11.812;2023-05-10T07:57:50;10.47;;;3.33;;
71671;SDS011;67659;45.554;11.812;2023-05-10T08:00:28;9.95;;;3.08;;
71671;SDS011;67659;45.554;11.812;2023-05-10T08:02:54;10.10;;;2.83;;
71671;SDS011;67659;45.554;11.812;2023-05-10T08:05:20;9.15;;;2.78;;
71671;SDS011;67659;45.554;11.812;2023-05-10T08:07:46;8.50;;;3.28;;
71671;SDS011;67659;45.554;11.812;2023-05-10T08:10:12;9.67;;;2.80;;
71671;SDS011;67659;45.554;11.812;2023-05-10T08:12:39;8.38;;;2.58;;
71671;SDS011;67659;45.554;11.812;2023-05-10T08:15:05;9.70;;;3.03;;
71671;SDS011;67659;45.554;11.812;2023-05-10T08:17:32;9.55;;;3.03;;
71671;SDS011;67659;45.554;11.812;2023-05-10T08:19:58;9.10;;;2.58;;
71671;SDS011;67659;45.554;11.812;2023-05-10T08:22:24;7.23;;;2.50;;
71671;SDS011;67659;45.554;11.812;2023-05-10T08:24:51;8.00;;;2.53;;
71671;SDS011;67659;45.554;11.812;2023-05-10T08:27:17;9.38;;;2.60;;
71671;SDS011;67659;45.554;11.812;2023-05-10T08:29:43;9.32;;;2.70;;
71671;SDS011;67659;45.554;11.812;2023-05-10T08:32:09;9.02;;;2.70;;
71671;SDS011;67659;45.554;11.812;2023-05-10T08:34:35;8.00;;;2.80;;
71671;SDS011;67659;45.554;11.812;2023-05-10T08:37:01;8.63;;;2.80;;
71671;SDS011;67659;45.554;11.812;2023-05-10T08:39:27;7.35;;;2.70;;
71671;SDS011;67659;45.554;11.812;2023-05-10T08:42:02;10.07;;;2.90;;
71671;SDS011;67659;45.554;11.812;2023-05-10T08:44:31;7.72;;;2.53;;
71671;SDS011;67659;45.554;11.812;2023-05-10T08:46:58;8.43;;;2.60;;
71671;SDS011;67659;45.554;11.812;2023-05-10T08:49:28;7.22;;;2.35;;
71671;SDS011;67659;45.554;11.812;2023-05-10T08:51:56;11.63;;;2.53;;
71671;SDS011;67659;45.554;11.812;2023-05-10T08:57:01;7.25;;;2.70;;
71671;SDS011;67659;45.554;11.812;2023-05-10T08:59:28;6.83;;;2.47;;
71671;SDS011;67659;45.554;11.812;2023-05-10T09:01:55;7.25;;;2.67;;
71671;SDS011;67659;45.554;11.812;2023-05-10T09:04:24;8.40;;;2.60;;
71671;SDS011;67659;45.554;11.812;2023-05-10T09:06:50;8.20;;;2.70;;
71671;SDS011;67659;45.554;11.812;2023-05-10T09:09:17;8.27;;;2.65;;
71671;SDS011;67659;45.554;11.812;2023-05-10T09:11:44;7.27;;;2.90;;
71671;SDS011;67659;45.554;11.812;2023-05-10T09:14:11;7.78;;;2.60;;
71671;SDS011;67659;45.554;11.812;2023-05-10T09:16:39;7.90;;;2.90;;
71671;SDS011;67659;45.554;11.812;2023-05-10T09:19:06;8.27;;;2.55;;
71671;SDS011;67659;45.554;11.812;2023-05-10T09:21:34;8.35;;;2.60;;
71671;SDS011;67659;45.554;11.812;2023-05-10T09:24:04;7.60;;;2.90;;
71671;SDS011;67659;45.554;11.812;2023-05-10T09:26:31;9.15;;;2.55;;
71671;SDS011;67659;45.554;11.812;2023-05-10T09:28:58;9.02;;;2.58;;
71671;SDS011;67659;45.554;11.812;2023-05-10T09:31:25;9.70;;;2.58;;
71671;SDS011;67659;45.554;11.812;2023-05-10T09:34:11;9.18;;;3.10;;
71671;SDS011;67659;45.554;11.812;2023-05-10T09:39:18;7.68;;;2.90;;
71671;SDS011;67659;45.554;11.812;2023-05-10T09:41:45;9.55;;;3.17;;
71671;SDS011;67659;45.554;11.812;2023-05-10T09:44:11;8.75;;;2.70;;
71671;SDS011;67659;45.554;11.812;2023-05-10T09:46:37;10.07;;;3.10;;
71671;SDS011;67659;45.554;11.812;2023-05-10T09:49:03;8.17;;;2.90;;
71671;SDS011;67659;45.554;11.812;2023-05-10T09:51:31;8.65;;;2.88;;
71671;SDS011;67659;45.554;11.812;2023-05-10T09:56:39;13.25;;;3.20;;
71671;SDS011;67659;45.554;11.812;2023-05-10T09:59:07;13.35;;;3.47;;
71671;SDS011;67659;45.554;11.812;2023-05-10T10:01:36;9.27;;;3.27;;
71671;SDS011;67659;45.554;11.812;2023-05-10T10:04:03;11.95;;;4.05;;
71671;SDS011;67659;45.554;11.812;2023-05-10T10:06:34;13.02;;;4.35;;
71671;SDS011;67659;45.554;11.812;2023-05-10T10:09:01;10.85;;;4.18;;
71671;SDS011;67659;45.554;11.812;2023-05-10T10:11:28;12.27;;;3.97;;
71671;SDS011;67659;45.554;11.812;2023-05-10T10:13:54;13.87;;;4.30;;
71671;SDS011;67659;45.554;11.812;2023-05-10T10:16:21;10.77;;;3.42;;
71671;SDS011;67659;45.554;11.812;2023-05-10T10:18:47;10.80;;;3.60;;
71671;SDS011;67659;45.554;11.812;2023-05-10T10:21:14;10.60;;;3.47;;
71671;SDS011;67659;45.554;11.812;2023-05-10T10:23:41;14.32;;;4.07;;
71671;SDS011;67659;45.554;11.812;2023-05-10T10:26:08;13.83;;;5.23;;
71671;SDS011;67659;45.554;11.812;2023-05-10T10:28:43;16.88;;;5.60;;
71671;SDS011;67659;45.554;11.812;2023-05-10T10:31:24;14.00;;;5.28;;
71671;SDS011;67659;45.554;11.812;2023-05-10T10:33:59;14.77;;;5.05;;
71671;SDS011;67659;45.554;11.812;2023-05-10T10:36:39;14.98;;;4.60;;
71671;SDS011;67659;45.554;11.812;2023-05-10T10:39:09;12.60;;;4.73;;
71671;SDS011;67659;45.554;11.812;2023-05-10T10:41:36;15.75;;;5.03;;
71671;SDS011;67659;45.554;11.812;2023-05-10T10:49:33;11.68;;;4.53;;
71671;SDS011;67659;45.554;11.812;2023-05-10T10:55:00;15.25;;;5.25;;
71671;SDS011;67659;45.554;11.812;2023-05-10T10:57:35;13.80;;;4.93;;
71671;SDS011;67659;45.554;11.812;2023-05-10T11:02:50;13.30;;;5.00;;
71671;SDS011;67659;45.554;11.812;2023-05-10T11:05:24;12.97;;;4.83;;
71671;SDS011;67659;45.554;11.812;2023-05-10T11:07:58;12.05;;;4.60;;
71671;SDS011;67659;45.554;11.812;2023-05-10T11:10:26;12.40;;;4.50;;
71671;SDS011;67659;45.554;11.812;2023-05-10T11:12:58;14.07;;;4.93;;
71671;SDS011;67659;45.554;11.812;2023-05-10T11:15:39;17.33;;;4.90;;
71671;SDS011;67659;45.554;11.812;2023-05-10T11:18:30;14.60;;;4.60;;
71671;SDS011;67659;45.554;11.812;2023-05-10T11:20:58;11.52;;;4.35;;
71671;SDS011;67659;45.554;11.812;2023-05-10T11:23:30;9.88;;;4.43;;
71671;SDS011;67659;45.554;11.812;2023-05-10T11:25:57;12.73;;;4.47;;
71671;SDS011;67659;45.554;11.812;2023-05-10T11:28:23;11.15;;;4.07;;
71671;SDS011;67659;45.554;11.812;2023-05-10T11:30:50;13.40;;;4.20;;
71671;SDS011;67659;45.554;11.812;2023-05-10T11:33:18;12.63;;;4.38;;
71671;SDS011;67659;45.554;11.812;2023-05-10T11:35:45;10.48;;;3.67;;
71671;SDS011;67659;45.554;11.812;2023-05-10T11:38:11;12.18;;;4.20;;
71671;SDS011;67659;45.554;11.812;2023-05-10T11:40:38;9.45;;;3.90;;
71671;SDS011;67659;45.554;11.812;2023-05-10T11:43:05;8.50;;;3.80;;
71671;SDS011;67659;45.554;11.812;2023-05-10T11:45:32;9.38;;;3.80;;
71671;SDS011;67659;45.554;11.812;2023-05-10T11:47:59;10.65;;;3.97;;
71671;SDS011;67659;45.554;11.812;2023-05-10T11:50:25;12.70;;;3.97;;
71671;SDS011;67659;45.554;11.812;2023-05-10T11:52:53;10.50;;;3.78;;
71671;SDS011;67659;45.554;11.812;2023-05-10T11:55:22;9.03;;;3.60;;
71671;SDS011;67659;45.554;11.812;2023-05-10T11:57:53;10.32;;;3.90;;
71671;SDS011;67659;45.554;11.812;2023-05-10T12:00:19;11.82;;;3.78;;
71671;SDS011;67659;45.554;11.812;2023-05-10T12:02:46;10.55;;;3.60;;
71671;SDS011;67659;45.554;11.812;2023-05-10T12:05:23;10.48;;;3.75;;
71671;SDS011;67659;45.554;11.812;2023-05-10T12:07:49;13.40;;;5.70;;
71671;SDS011;67659;45.554;11.812;2023-05-10T12:10:15;11.85;;;5.20;;
71671;SDS011;67659;45.554;11.812;2023-05-10T12:12:44;20.75;;;10.10;;
71671;SDS011;67659;45.554;11.812;2023-05-10T12:15:21;18.58;;;9.35;;
71671;SDS011;67659;45.554;11.812;2023-05-10T12:17:48;16.70;;;8.03;;
71671;SDS011;67659;45.554;11.812;2023-05-10T12:20:16;35.30;;;21.30;;
71671;SDS011;67659;45.554;11.812;2023-05-10T12:22:45;26.70;;;16.42;;
71671;SDS011;67659;45.554;11.812;2023-05-10T12:25:12;18.85;;;10.38;;
71671;SDS011;67659;45.554;11.812;2023-05-10T12:27:38;17.92;;;8.38;;
71671;SDS011;67659;45.554;11.812;2023-05-10T12:30:04;14.77;;;8.20;;
71671;SDS011;67659;45.554;11.812;2023-05-10T12:32:38;16.50;;;8.07;;
71671;SDS011;67659;45.554;11.812;2023-05-10T12:35:06;13.70;;;7.60;;
71671;SDS011;67659;45.554;11.812;2023-05-10T12:37:32;20.00;;;7.70;;
71671;SDS011;67659;45.554;11.812;2023-05-10T12:40:04;13.47;;;6.83;;
71671;SDS011;67659;45.554;11.812;2023-05-10T12:42:33;15.57;;;7.00;;
71671;SDS011;67659;45.554;11.812;2023-05-10T12:45:00;14.13;;;6.90;;
71671;SDS011;67659;45.554;11.812;2023-05-10T12:47:27;13.30;;;6.43;;
71671;SDS011;67659;45.554;11.812;2023-05-10T12:49:53;13.00;;;6.38;;
71671;SDS011;67659;45.554;11.812;2023-05-10T12:52:19;10.60;;;6.20;;
71671;SDS011;67659;45.554;11.812;2023-05-10T12:54:45;11.25;;;5.82;;
71671;SDS011;67659;45.554;11.812;2023-05-10T12:57:12;13.65;;;6.07;;
71671;SDS011;67659;45.554;11.812;2023-05-10T12:59:39;11.52;;;5.95;;
71671;SDS011;67659;45.554;11.812;2023-05-10T13:02:05;11.37;;;5.90;;
71671;SDS011;67659;45.554;11.812;2023-05-10T13:04:31;11.95;;;5.82;;
71671;SDS011;67659;45.554;11.812;2023-05-10T13:06:57;10.75;;;5.20;;
71671;SDS011;67659;45.554;11.812;2023-05-10T13:09:25;9.50;;;5.40;;
71671;SDS011;67659;45.554;11.812;2023-05-10T13:11:52;10.30;;;5.27;;
71671;SDS011;67659;45.554;11.812;2023-05-10T13:14:19;12.18;;;4.85;;
71671;SDS011;67659;45.554;11.812;2023-05-10T13:16:47;11.55;;;5.70;;
71671;SDS011;67659;45.554;11.812;2023-05-10T13:19:14;12.13;;;4.93;;
71671;SDS011;67659;45.554;11.812;2023-05-10T13:21:40;9.82;;;4.95;;
71671;SDS011;67659;45.554;11.812;2023-05-10T13:24:07;9.07;;;4.73;;
71671;SDS011;67659;45.554;11.812;2023-05-10T13:26:33;9.38;;;4.57;;
71671;SDS011;67659;45.554;11.812;2023-05-10T13:28:59;10.18;;;4.78;;
71671;SDS011;67659;45.554;11.812;2023-05-10T13:31:25;10.00;;;5.00;;
71671;SDS011;67659;45.554;11.812;2023-05-10T13:33:51;11.57;;;4.80;;
71671;SDS011;67659;45.554;11.812;2023-05-10T13:36:17;9.57;;;4.38;;
71671;SDS011;67659;45.554;11.812;2023-05-10T13:38:43;10.65;;;5.47;;
71671;SDS011;67659;45.554;11.812;2023-05-10T13:41:10;9.13;;;4.90;;
71671;SDS011;67659;45.554;11.812;2023-05-10T13:43:36;10.47;;;4.50;;
71671;SDS011;67659;45.554;11.812;2023-05-10T13:46:02;11.40;;;4.72;;
71671;SDS011;67659;45.554;11.812;2023-05-10T13:48:38;8.05;;;4.38;;
71671;SDS011;67659;45.554;11.812;2023-05-10T13:51:05;8.48;;;4.72;;
71671;SDS011;67659;45.554;11.812;2023-05-10T13:53:31;10.33;;;4.70;;
71671;SDS011;67659;45.554;11.812;2023-05-10T13:55:57;10.65;;;4.97;;
71671;SDS011;67659;45.554;11.812;2023-05-10T13:58:27;9.70;;;4.43;;
71671;SDS011;67659;45.554;11.812;2023-05-10T14:00:53;9.75;;;4.72;;
71671;SDS011;67659;45.554;11.812;2023-05-10T14:03:19;9.70;;;4.90;;
71671;SDS011;67659;45.554;11.812;2023-05-10T14:05:45;10.52;;;4.88;;
71671;SDS011;67659;45.554;11.812;2023-05-10T14:08:12;14.27;;;4.30;;
71671;SDS011;67659;45.554;11.812;2023-05-10T14:10:38;7.78;;;4.28;;
71671;SDS011;67659;45.554;11.812;2023-05-10T14:13:04;8.57;;;3.73;;
71671;SDS011;67659;45.554;11.812;2023-05-10T14:15:31;9.43;;;4.35;;
71671;SDS011;67659;45.554;11.812;2023-05-10T14:17:57;9.52;;;4.63;;
71671;SDS011;67659;45.554;11.812;2023-05-10T14:20:23;8.35;;;4.10;;
71671;SDS011;67659;45.554;11.812;2023-05-10T14:22:49;8.03;;;3.77;;
71671;SDS011;67659;45.554;11.812;2023-05-10T14:25:15;9.35;;;4.22;;
71671;SDS011;67659;45.554;11.812;2023-05-10T14:27:41;7.82;;;4.00;;
71671;SDS011;67659;45.554;11.812;2023-05-10T14:30:07;12.43;;;4.78;;
71671;SDS011;67659;45.554;11.812;2023-05-10T14:32:33;11.30;;;4.03;;
71671;SDS011;67659;45.554;11.812;2023-05-10T14:35:01;10.02;;;4.03;;
71671;SDS011;67659;45.554;11.812;2023-05-10T14:37:27;10.73;;;4.18;;
71671;SDS011;67659;45.554;11.812;2023-05-10T14:39:53;9.27;;;3.90;;
71671;SDS011;67659;45.554;11.812;2023-05-10T14:42:19;10.23;;;4.00;;
71671;SDS011;67659;45.554;11.812;2023-05-10T14:44:47;11.70;;;3.87;;
71671;SDS011;67659;45.554;11.812;2023-05-10T14:47:13;11.13;;;4.20;;
71671;SDS011;67659;45.554;11.812;2023-05-10T14:49:39;11.45;;;3.63;;
71671;SDS011;67659;45.554;11.812;2023-05-10T14:52:06;9.20;;;4.20;;
71671;SDS011;67659;45.554;11.812;2023-05-10T14:54:32;10.50;;;3.90;;
71671;SDS011;67659;45.554;11.812;2023-05-10T14:56:58;11.50;;;4.20;;
71671;SDS011;67659;45.554;11.812;2023-05-10T14:59:25;8.98;;;4.10;;
71671;SDS011;67659;45.554;11.812;2023-05-10T15:01:51;8.25;;;3.70;;